MDT,Max TemperatureF,Mean TemperatureF,Min TemperatureF,Max Dew PointF,MeanDew PointF,Min DewpointF,Max Humidity, Mean Humidity, Min Humidity, Max Sea Level PressureIn, Mean Sea Level PressureIn, Min Sea Level PressureIn, Max VisibilityMiles, Mean VisibilityMiles, Min VisibilityMiles, Max Wind SpeedMPH, Mean Wind SpeedMPH, Max Gust SpeedMPH,PrecipitationIn, CloudCover, Events, WindDirDegrees
2012-10-1,76,60,44,42,38,35,85,47,14,30.30,30.10,29.79,10,10,10,20,10,25,0.00,1,,234
2012-10-2,82,68,53,37,33,29,44,26,8,29.77,29.72,29.65,10,10,10,22,12,26,0.00,2,,312
2012-10-3,53,43,33,37,34,32,100,83,47,30.53,30.24,29.76,10,7,1,24,12,29,0.34,7,Rain-Snow,345
2012-10-4,44,40,35,34,33,30,96,81,57,30.51,30.41,30.31,10,10,9,16,7,21,0.01,8,Snow,57
2012-10-5,40,34,27,34,30,26,100,85,57,30.52,30.42,30.34,10,8,0,21,6,26,0.06,7,Fog-Snow,20
2012-10-6,49,37,24,27,23,16,100,69,19,30.51,30.38,30.19,10,8,0,20,10,24,T,4,Fog,232
2012-10-7,61,49,37,27,24,21,54,36,17,30.20,30.04,29.91,10,10,10,24,16,29,0.00,1,,238
2012-10-8,51,44,36,41,34,22,93,70,22,30.12,29.98,29.88,10,9,5,21,11,30,0.30,7,Rain,19
2012-10-9,55,45,35,37,34,27,54,48,41,30.20,30.12,30.08,10,9,3,16,10,21,0.02,6,Fog-Rain-Snow,226
2012-10-10,71,57,42,37,31,27,70,47,23,30.10,29.95,29.82,10,10,10,28,17,35,T,2,,245
2012-10-11,43,38,32,35,33,31,100,85,70,30.32,30.19,30.05,10,9,3,20,9,23,T,7,Fog,43
2012-10-12,76,54,32,38,35,32,100,61,21,30.09,29.86,29.67,10,5,0,25,9,31,0.00,4,Fog,225
2012-10-13,66,57,48,43,35,26,61,44,27,30.10,29.89,29.72,10,10,10,31,13,37,T,3,Rain,281
2012-10-14,72,60,47,36,33,31,61,42,23,30.15,30.03,29.84,10,10,10,26,12,31,0.00,1,,263
2012-10-15,67,58,48,46,39,30,86,59,32,29.86,29.79,29.76,10,10,10,26,11,36,0.02,5,Rain,256
2012-10-16,65,55,44,46,34,18,93,58,22,29.76,29.54,29.38,10,10,10,45,18,55,T,3,Rain,268
2012-10-17,54,45,36,25,19,15,54,38,22,30.14,29.95,29.77,10,10,10,39,21,49,0.00,2,,302
2012-10-18,57,45,32,23,20,18,52,38,24,30.27,30.16,30.04,10,10,10,26,9,31,0.00,0,,264
2012-10-19,65,54,42,30,24,18,37,31,24,30.01,29.77,29.59,10,10,10,23,15,31,0.00,3,,233
2012-10-20,66,53,40,43,36,28,79,56,33,29.83,29.60,29.47,10,10,5,29,10,32,0.16,4,Rain-Thunderstorm,271
2012-10-21,49,43,36,37,34,31,86,68,50,29.94,29.90,29.83,10,10,10,17,8,24,T,6,Rain,65
2012-10-22,40,37,33,39,35,30,100,88,76,29.91,29.75,29.60,10,8,0,14,6,16,0.16,7,Fog-Rain,11
2012-10-23,46,37,28,37,33,28,92,75,58,29.99,29.81,29.61,10,10,9,29,8,40,0.03,6,Rain-Snow-Thunderstorm,17
2012-10-24,39,33,27,28,26,25,92,78,64,30.27,30.09,29.93,10,10,9,13,5,15,T,6,Snow,62
2012-10-25,27,26,24,24,21,19,88,82,75,30.53,30.37,30.18,10,8,2,14,7,17,0.02,8,Fog-Snow,70
2012-10-26,40,32,23,23,21,19,81,65,48,30.53,30.35,30.18,10,10,10,21,6,24,0.00,4,,247
2012-10-27,39,35,30,31,27,23,100,82,64,30.17,30.12,30.03,10,10,2,10,3,10,T,7,Snow,32
2012-10-28,60,45,30,34,31,28,100,68,36,30.06,29.94,29.84,10,9,4,17,5,17,0.00,5,Fog,250
2012-10-29,62,52,41,46,39,32,80,64,47,30.00,29.93,29.88,10,10,10,16,5,17,0.02,5,Rain,234
2012-10-30,66,54,42,39,35,30,76,53,29,30.09,30.00,29.94,10,10,10,15,8,16,0.00,2,,218
2012-10-31,58,48,37,40,36,30,92,64,36,30.05,29.99,29.93,10,10,10,20,10,25,0.00,1,,13